地図

経路データ

SID SEASON NUMBER BASIN SUBBASIN NAME ISO_TIME NATURE LAT LON WMO_WIND WMO_PRES WMO_AGENCY TRACK_TYPE DIST2LAND LANDFALL IFLAG USA_AGENCY USA_ATCF_ID USA_LAT USA_LON USA_RECORD USA_STATUS USA_WIND USA_PRES USA_SSHS USA_R34_NE USA_R34_SE USA_R34_SW USA_R34_NW USA_R50_NE USA_R50_SE USA_R50_SW USA_R50_NW USA_R64_NE USA_R64_SE USA_R64_SW USA_R64_NW USA_POCI USA_ROCI USA_RMW USA_EYE TOKYO_LAT TOKYO_LON TOKYO_GRADE TOKYO_WIND TOKYO_PRES TOKYO_R50_DIR TOKYO_R50_LONG TOKYO_R50_SHORT TOKYO_R30_DIR TOKYO_R30_LONG TOKYO_R30_SHORT TOKYO_LAND CMA_LAT CMA_LON CMA_CAT CMA_WIND CMA_PRES HKO_LAT HKO_LON HKO_CAT HKO_WIND HKO_PRES NEWDELHI_LAT NEWDELHI_LON NEWDELHI_GRADE NEWDELHI_WIND NEWDELHI_PRES NEWDELHI_CI NEWDELHI_DP NEWDELHI_POCI REUNION_LAT REUNION_LON REUNION_TYPE REUNION_WIND REUNION_PRES REUNION_TNUM REUNION_CI REUNION_RMW REUNION_R34_NE REUNION_R34_SE REUNION_R34_SW REUNION_R34_NW REUNION_R50_NE REUNION_R50_SE REUNION_R50_SW REUNION_R50_NW REUNION_R64_NE REUNION_R64_SE REUNION_R64_SW REUNION_R64_NW BOM_LAT BOM_LON BOM_TYPE BOM_WIND BOM_PRES BOM_TNUM BOM_CI BOM_RMW BOM_R34_NE BOM_R34_SE BOM_R34_SW BOM_R34_NW BOM_R50_NE BOM_R50_SE BOM_R50_SW BOM_R50_NW BOM_R64_NE BOM_R64_SE BOM_R64_SW BOM_R64_NW BOM_ROCI BOM_POCI BOM_EYE BOM_POS_METHOD BOM_PRES_METHOD NADI_LAT NADI_LON NADI_CAT NADI_WIND NADI_PRES WELLINGTON_LAT WELLINGTON_LON WELLINGTON_WIND WELLINGTON_PRES DS824_LAT DS824_LON DS824_STAGE DS824_WIND DS824_PRES TD9636_LAT TD9636_LON TD9636_STAGE TD9636_WIND TD9636_PRES TD9635_LAT TD9635_LON TD9635_WIND TD9635_PRES TD9635_ROCI NEUMANN_LAT NEUMANN_LON NEUMANN_CLASS NEUMANN_WIND NEUMANN_PRES MLC_LAT MLC_LON MLC_CLASS MLC_WIND MLC_PRES USA_GUST BOM_GUST BOM_GUST_PER REUNION_GUST REUNION_GUST_PER USA_SEAHGT USA_SEARAD_NE USA_SEARAD_SE USA_SEARAD_SW USA_SEARAD_NW STORM_SPEED STORM_DIR
1995193N17305 1995 32 NA NA CHANTAL 1995-07-12 00:00:00 TS 17.1000 -54.9000 25 1012 hurdat_atl main 973 939 O_____________ hurdat_atl AL031995 17.1000 -54.9000 TD 25 1012 -1 15 284
1995193N17305 1995 32 NA NA CHANTAL 1995-07-12 03:00:00 TS 17.2804 -55.6750 main 934 902 P_____________ AL031995 17.2804 -55.6750 TD 25 1012 -1 16 285
1995193N17305 1995 32 NA NA CHANTAL 1995-07-12 06:00:00 TS 17.5000 -56.5000 25 1012 hurdat_atl main 902 878 O_____________ hurdat_atl AL031995 17.5000 -56.5000 TD 25 1012 -1 17 287
1995193N17305 1995 32 NA NA CHANTAL 1995-07-12 09:00:00 TS 17.7850 -57.3999 main 868 771 P_____________ AL031995 17.7850 -57.3999 TD 25 1012 -1 18 289
1995193N17305 1995 32 NA NA CHANTAL 1995-07-12 12:00:00 TS 18.1000 -58.3000 25 1012 hurdat_atl main 771 685 O_____________ hurdat_atl AL031995 18.1000 -58.3000 TD 25 1012 -1 18 290
1995193N17305 1995 32 NA NA CHANTAL 1995-07-12 15:00:00 TS 18.4074 -59.1525 main 675 601 P_____________ AL031995 18.4074 -59.1525 TD 27 1011 -1 16 292
1995193N17305 1995 32 NA NA CHANTAL 1995-07-12 18:00:00 TS 18.7000 -59.9000 30 1011 hurdat_atl main 601 541 O_____________ hurdat_atl AL031995 18.7000 -59.9000 TD 30 1011 -1 14 294
1995193N17305 1995 32 NA NA CHANTAL 1995-07-12 21:00:00 TS 18.9646 -60.5028 main 541 492 P_____________ AL031995 18.9646 -60.5028 TD 30 1011 -1 12 296
1995193N17305 1995 32 NA NA CHANTAL 1995-07-13 00:00:00 TS 19.2000 -61.0000 30 1011 hurdat_atl main 492 455 O_____________ hurdat_atl AL031995 19.2000 -61.0000 TD 30 1011 -1 10 295
1995193N17305 1995 32 NA NA CHANTAL 1995-07-13 03:00:00 TS 19.3998 -61.4728 main 445 411 P_____________ AL031995 19.3998 -61.4728 TD 30 1011 -1 9 295
1995193N17305 1995 32 NA NA CHANTAL 1995-07-13 06:00:00 TS 19.6000 -61.9000 30 1011 hurdat_atl main 411 380 O_____________ hurdat_atl AL031995 19.6000 -61.9000 TD 30 1011 -1 9 300
1995193N17305 1995 32 NA NA CHANTAL 1995-07-13 09:00:00 TS 19.8423 -62.3001 main 380 358 P_____________ AL031995 19.8423 -62.3001 TD 30 1010 -1 9 304
1995193N17305 1995 32 NA NA CHANTAL 1995-07-13 12:00:00 TS 20.1000 -62.7000 30 1010 hurdat_atl main 358 337 O_____________ hurdat_atl AL031995 20.1000 -62.7000 TD 30 1010 -1 9 302
1995193N17305 1995 32 NA NA CHANTAL 1995-07-13 15:00:00 TS 20.3500 -63.1501 main 336 321 P_____________ AL031995 20.3500 -63.1501 TD 30 1010 -1 10 301
1995193N17305 1995 32 NA NA CHANTAL 1995-07-13 18:00:00 TS 20.6000 -63.6000 30 1010 hurdat_atl main 323 316 O_____________ hurdat_atl AL031995 20.6000 -63.6000 TD 30 1010 -1 10 303
1995193N17305 1995 32 NA NA CHANTAL 1995-07-13 21:00:00 TS 20.8875 -64.0298 main 325 320 P_____________ AL031995 20.8875 -64.0298 TD 32 1008 -1 9 304
1995193N17305 1995 32 NA NA CHANTAL 1995-07-14 00:00:00 TS 21.1000 -64.4000 35 1006 hurdat_atl main 327 316 O_____________ hurdat_atl AL031995 21.1000 -64.4000 TS 35 1006 0 7 292
1995193N17305 1995 32 NA NA CHANTAL 1995-07-14 03:00:00 TS 21.1374 -64.6878 main 316 310 P_____________ AL031995 21.1374 -64.6878 TS 35 1007 0 5 270
1995193N17305 1995 32 NA NA CHANTAL 1995-07-14 06:00:00 TS 21.1000 -64.9000 35 1008 hurdat_atl main 310 306 O_____________ hurdat_atl AL031995 21.1000 -64.9000 TS 35 1008 0 4 262
1995193N17305 1995 32 NA NA CHANTAL 1995-07-14 09:00:00 TS 21.0849 -65.0650 main 306 304 P_____________ AL031995 21.0849 -65.0650 TS 35 1008 0 3 270
1995193N17305 1995 32 NA NA CHANTAL 1995-07-14 12:00:00 TS 21.1000 -65.2000 35 1009 hurdat_atl main 304 303 O_____________ hurdat_atl AL031995 21.1000 -65.2000 TS 35 1009 0 3 287
1995193N17305 1995 32 NA NA CHANTAL 1995-07-14 15:00:00 TS 21.1624 -65.3351 main 314 313 P_____________ AL031995 21.1624 -65.3351 TS 37 1009 0 3 305
1995193N17305 1995 32 NA NA CHANTAL 1995-07-14 18:00:00 TS 21.3000 -65.5000 40 1010 hurdat_atl main 324 324 O_____________ hurdat_atl AL031995 21.3000 -65.5000 TS 40 1010 0 5 316
1995193N17305 1995 32 NA NA CHANTAL 1995-07-14 21:00:00 TS 21.5274 -65.7200 main 346 346 P_____________ AL031995 21.5274 -65.7200 TS 40 1009 0 7 317
1995193N17305 1995 32 NA NA CHANTAL 1995-07-15 00:00:00 TS 21.8000 -66.0000 40 1009 hurdat_atl main 380 380 O_____________ hurdat_atl AL031995 21.8000 -66.0000 TS 40 1009 0 8 313
1995193N17305 1995 32 NA NA CHANTAL 1995-07-15 03:00:00 TS 22.0575 -66.3275 main 413 413 P_____________ AL031995 22.0575 -66.3275 TS 42 1007 0 8 308
1995193N17305 1995 32 NA NA CHANTAL 1995-07-15 06:00:00 TS 22.3000 -66.7000 45 1006 hurdat_atl main 430 421 O_____________ hurdat_atl AL031995 22.3000 -66.7000 TS 45 1006 0 9 301
1995193N17305 1995 32 NA NA CHANTAL 1995-07-15 09:00:00 TS 22.5001 -67.1226 main 424 418 P_____________ AL031995 22.5001 -67.1226 TS 45 1006 0 8 298
1995193N17305 1995 32 NA NA CHANTAL 1995-07-15 12:00:00 TS 22.7000 -67.5000 45 1006 hurdat_atl main 423 423 O_____________ hurdat_atl AL031995 22.7000 -67.5000 TS 45 1006 0 7 308
1995193N17305 1995 32 NA NA CHANTAL 1995-07-15 15:00:00 TS 22.9423 -67.7376 main 435 435 P_____________ AL031995 22.9423 -67.7376 TS 45 1005 0 6 324
1995193N17305 1995 32 NA NA CHANTAL 1995-07-15 18:00:00 TS 23.2000 -67.9000 45 1005 hurdat_atl main 457 457 O_____________ hurdat_atl AL031995 23.2000 -67.9000 TS 45 1005 0 6 328
1995193N17305 1995 32 NA NA CHANTAL 1995-07-15 21:00:00 TS 23.4275 -68.0651 main 468 468 P_____________ AL031995 23.4275 -68.0651 TS 45 1004 0 6 331
1995193N17305 1995 32 NA NA CHANTAL 1995-07-16 00:00:00 TS 23.7000 -68.2000 45 1004 hurdat_atl main 494 494 O_____________ hurdat_atl AL031995 23.7000 -68.2000 TS 45 1004 0 7 342
1995193N17305 1995 32 NA NA CHANTAL 1995-07-16 03:00:00 TS 24.0774 -68.2927 main 532 532 P_____________ AL031995 24.0774 -68.2927 TS 47 1001 0 8 347
1995193N17305 1995 32 NA NA CHANTAL 1995-07-16 06:00:00 TS 24.5000 -68.4000 50 999 hurdat_atl main 572 572 O_____________ hurdat_atl AL031995 24.5000 -68.4000 TS 50 999 0 9 341
1995193N17305 1995 32 NA NA CHANTAL 1995-07-16 09:00:00 TS 24.8925 -68.5924 main 606 606 P_____________ AL031995 24.8925 -68.5924 TS 50 999 0 9 336
1995193N17305 1995 32 NA NA CHANTAL 1995-07-16 12:00:00 TS 25.3000 -68.8000 50 999 hurdat_atl main 627 627 O_____________ hurdat_atl AL031995 25.3000 -68.8000 TS 50 999 0 9 339
1995193N17305 1995 32 NA NA CHANTAL 1995-07-16 15:00:00 TS 25.7350 -68.9577 main 647 647 P_____________ AL031995 25.7350 -68.9577 TS 52 998 0 9 343
1995193N17305 1995 32 NA NA CHANTAL 1995-07-16 18:00:00 TS 26.2000 -69.1000 55 997 hurdat_atl main 685 685 O_____________ hurdat_atl AL031995 26.2000 -69.1000 TS 55 997 0 10 344
1995193N17305 1995 32 NA NA CHANTAL 1995-07-16 21:00:00 TS 26.6925 -69.2575 main 720 720 P_____________ AL031995 26.6925 -69.2575 TS 57 994 0 10 345
1995193N17305 1995 32 NA NA CHANTAL 1995-07-17 00:00:00 TS 27.2000 -69.4000 60 991 hurdat_atl main 763 763 O_____________ hurdat_atl AL031995 27.2000 -69.4000 TS 60 991 0 10 347
1995193N17305 1995 32 NA NA CHANTAL 1995-07-17 03:00:00 TS 27.6925 -69.5077 main 807 807 P_____________ AL031995 27.6925 -69.5077 TS 60 993 0 10 350
1995193N17305 1995 32 NA NA CHANTAL 1995-07-17 06:00:00 TS 28.2000 -69.6000 60 995 hurdat_atl main 854 854 O_____________ hurdat_atl AL031995 28.2000 -69.6000 TS 60 995 0 11 350
1995193N17305 1995 32 NA NA CHANTAL 1995-07-17 09:00:00 TS 28.7350 -69.7148 main 901 871 P_____________ AL031995 28.7350 -69.7148 TS 60 996 0 11 351
1995193N17305 1995 32 NA NA CHANTAL 1995-07-17 12:00:00 TS 29.3000 -69.8000 60 997 hurdat_atl main 871 825 O_____________ hurdat_atl AL031995 29.3000 -69.8000 TS 60 997 0 12 355
1995193N17305 1995 32 NA NA CHANTAL 1995-07-17 15:00:00 TS 29.9000 -69.8226 main 825 780 P_____________ AL031995 29.9000 -69.8226 TS 57 996 0 12 1
1995193N17305 1995 32 NA NA CHANTAL 1995-07-17 18:00:00 TS 30.5000 -69.8000 55 995 hurdat_atl main 780 745 O_____________ hurdat_atl AL031995 30.5000 -69.8000 TS 55 995 0 12 1
1995193N17305 1995 32 NA NA CHANTAL 1995-07-17 21:00:00 TS 31.0648 -69.8018 main 738 711 P_____________ AL031995 31.0648 -69.8018 TS 55 994 0 11 5
1995193N17305 1995 32 NA NA CHANTAL 1995-07-18 00:00:00 TS 31.6000 -69.7000 55 994 hurdat_atl main 711 689 O_____________ hurdat_atl AL031995 31.6000 -69.7000 TS 55 994 0 11 18
1995193N17305 1995 32 NA NA CHANTAL 1995-07-18 03:00:00 TS 32.1075 -69.4100 main 696 689 P_____________ AL031995 32.1075 -69.4100 TS 55 994 0 12 31
1995193N17305 1995 32 NA NA CHANTAL 1995-07-18 06:00:00 TS 32.6000 -69.0000 55 994 hurdat_atl main 694 688 O_____________ hurdat_atl AL031995 32.6000 -69.0000 TS 55 994 0 12 36
1995193N17305 1995 32 NA NA CHANTAL 1995-07-18 09:00:00 TS 33.1001 -68.5574 main 699 699 P_____________ AL031995 33.1001 -68.5574 TS 52 994 0 13 37
1995193N17305 1995 32 NA NA CHANTAL 1995-07-18 12:00:00 TS 33.6000 -68.1000 50 995 hurdat_atl main 717 713 O_____________ hurdat_atl AL031995 33.6000 -68.1000 TS 50 995 0 12 34
1995193N17305 1995 32 NA NA CHANTAL 1995-07-18 15:00:00 TS 34.1141 -67.7438 main 733 730 P_____________ AL031995 34.1141 -67.7438 TS 50 995 0 12 34
1995193N17305 1995 32 NA NA CHANTAL 1995-07-18 18:00:00 TS 34.6000 -67.3000 50 996 hurdat_atl main 755 755 O_____________ hurdat_atl AL031995 34.6000 -67.3000 TS 50 996 0 13 46
1995193N17305 1995 32 NA NA CHANTAL 1995-07-18 21:00:00 TS 35.0151 -66.6170 main 802 786 P_____________ AL031995 35.0151 -66.6170 TS 50 996 0 15 57
1995193N17305 1995 32 NA NA CHANTAL 1995-07-19 00:00:00 TS 35.4000 -65.8000 50 997 hurdat_atl main 790 782 O_____________ hurdat_atl AL031995 35.4000 -65.8000 TS 50 997 0 16 60
1995193N17305 1995 32 NA NA CHANTAL 1995-07-19 03:00:00 TS 35.7922 -64.9641 main 786 786 P_____________ AL031995 35.7922 -64.9641 TS 50 997 0 16 60
1995193N17305 1995 32 NA NA CHANTAL 1995-07-19 06:00:00 TS 36.2000 -64.1000 50 997 hurdat_atl main 795 784 O_____________ hurdat_atl AL031995 36.2000 -64.1000 TS 50 997 0 16 58
1995193N17305 1995 32 NA NA CHANTAL 1995-07-19 09:00:00 TS 36.6260 -63.2854 main 786 750 P_____________ AL031995 36.6260 -63.2854 TS 50 997 0 16 57
1995193N17305 1995 32 NA NA CHANTAL 1995-07-19 12:00:00 TS 37.1000 -62.4000 50 998 hurdat_atl main 753 730 O_____________ hurdat_atl AL031995 37.1000 -62.4000 TS 50 998 0 18 57
1995193N17305 1995 32 NA NA CHANTAL 1995-07-19 15:00:00 TS 37.6191 -61.3657 main 733 723 P_____________ AL031995 37.6191 -61.3657 TS 50 998 0 21 58
1995193N17305 1995 32 NA NA CHANTAL 1995-07-19 18:00:00 TS 38.2000 -60.2000 50 998 hurdat_atl main 728 723 O_____________ hurdat_atl AL031995 38.2000 -60.2000 TS 50 998 0 22 58
1995193N17305 1995 32 NA NA CHANTAL 1995-07-19 21:00:00 TS 38.8113 -58.9495 main 730 692 P_____________ AL031995 38.8113 -58.9495 TS 50 998 0 24 57
1995193N17305 1995 32 NA NA CHANTAL 1995-07-20 00:00:00 TS 39.5000 -57.6000 50 999 hurdat_atl main 695 679 O_____________ hurdat_atl AL031995 39.5000 -57.6000 TS 50 999 0 26 56
1995193N17305 1995 32 NA NA CHANTAL 1995-07-20 03:00:00 TS 40.2539 -56.1767 main 674 618 P_____________ AL031995 40.2539 -56.1767 TS 50 999 0 27 54
1995193N17305 1995 32 NA NA CHANTAL 1995-07-20 06:00:00 TS 41.1000 -54.7000 50 999 hurdat_atl main 617 522 O_____________ hurdat_atl AL031995 41.1000 -54.7000 TS 50 999 0 28 52
1995193N17305 1995 32 NA NA CHANTAL 1995-07-20 09:00:00 TS 41.9888 -53.1950 main 511 423 P_____________ AL031995 41.9888 -53.1950 TS 50 999 0 29 50
1995193N17305 1995 32 NA NA CHANTAL 1995-07-20 12:00:00 TS 43.0000 -51.7000 50 1000 hurdat_atl main 417 353 O_____________ hurdat_atl AL031995 43.0000 -51.7000 TS 50 1000 0 30 44
1995193N17305 1995 32 NA NA CHANTAL 1995-07-20 15:00:00 TS 44.1660 -50.2886 main 349 342 P_____________ AL031995 44.1660 -50.2886 TS 50 1000 0 32 41
1995193N17305 1995 32 NA NA CHANTAL 1995-07-20 18:00:00 ET 45.4000 -48.8000 50 1000 hurdat_atl main 357 357 O_____________ hurdat_atl AL031995 45.4000 -48.8000 EX 50 1000 -4 33 43
1995193N17305 1995 32 NA NA CHANTAL 1995-07-20 21:00:00 ET 46.5795 -47.0498 main 434 434 P_____________ AL031995 46.5795 -47.0498 EX 50 1000 -4 34 47
1995193N17305 1995 32 NA NA CHANTAL 1995-07-21 00:00:00 ET 47.7000 -45.2000 50 1001 hurdat_atl main 552 552 O_____________ hurdat_atl AL031995 47.7000 -45.2000 EX 50 1001 -4 32 48
1995193N17305 1995 32 NA NA CHANTAL 1995-07-21 03:00:00 ET 48.7384 -43.4637 main 685 685 P_____________ AL031995 48.7384 -43.4637 EX 50 1001 -4 31 50
1995193N17305 1995 32 NA NA CHANTAL 1995-07-21 06:00:00 ET 49.7000 -41.6000 50 1002 hurdat_atl main 833 833 O_____________ hurdat_atl AL031995 49.7000 -41.6000 EX 50 1002 -4 32 55
1995193N17305 1995 32 NA NA CHANTAL 1995-07-21 09:00:00 ET 50.5731 -39.4674 main 995 995 P_____________ AL031995 50.5731 -39.4674 EX 50 1002 -4 34 60
1995193N17305 1995 32 NA NA CHANTAL 1995-07-21 12:00:00 ET 51.4000 -37.0000 50 1003 hurdat_atl main 1034 1021 O_____________ hurdat_atl AL031995 51.4000 -37.0000 EX 50 1003 -4 35 63
1995193N17305 1995 32 NA NA CHANTAL 1995-07-21 15:00:00 ET 52.1433 -34.4345 main 1034 1027 P_____________ AL031995 52.1433 -34.4345 EX 50 1004 -4 40 67
1995193N17305 1995 32 NA NA CHANTAL 1995-07-21 18:00:00 ET 53.0000 -31.0000 50 1005 hurdat_atl main 1074 1054 O_____________ hurdat_atl AL031995 53.0000 -31.0000 EX 50 1005 -4 54 69
1995193N17305 1995 32 NA NA CHANTAL 1995-07-21 21:00:00 ET 54.0407 -26.0523 main 1035 665 P_____________ AL031995 54.0407 -26.0523 EX 50 1005 -4 67 73
1995193N17305 1995 32 NA NA CHANTAL 1995-07-22 00:00:00 ET 55.0000 -20.0000 50 1005 hurdat_atl main 639 O_____________ hurdat_atl AL031995 55.0000 -20.0000 EX 50 1005 -4 72 75

IBTrACS Databaseについて

本データベースは、米国NOAAが公開する1842年以降の世界の熱帯低気圧のベストトラックデータアーカイブInternational Best Track Archive for Climate Stewardship (IBTrACS)を、ウェブで閲覧しやすい形式に変換したものです。

最終更新日:2021-10-08